Ballindalloch, United Kingdom
Current Conditions -  °F | °C
As of 4:50 PM on Friday 31 Oct 2014 (Local Time) from EGQK Reporting Station
Scattered Clouds Scattered Clouds  
Wind Chill: 63°   Ceiling: Unl
Heat Index: 63°   Visibility: 6mi
Dew Point: 54°   Wind: 5mph
Humidity: 72%   Direction: 210°SSW
Pressure: 29.56"   Gusts: NA
Location:  57.41°N, 3.36°W
Report Text: EGQK 311650Z AUTO 21004KT 9999 SCT160/// SCT240/// 17/12 Q1001
Loading
Personal Weather Stations






























Interactive Weather Map
Tropical Storm Tracking
New forecast layout! Learn more

10-Day Weather Forecast

Advertisements
Track Severe Weather on mobile